sensor_id;sensor_type;location;lat;lon;timestamp;temperature;humidity
2543;DHT22;1116;51.502;7.414;2023-05-15T00:00:53;14.60;26.20
2543;DHT22;1116;51.502;7.414;2023-05-15T00:03:24;14.20;26.60
2543;DHT22;1116;51.502;7.414;2023-05-15T00:05:58;14.10;28.40
2543;DHT22;1116;51.502;7.414;2023-05-15T00:08:29;14.10;27.00
2543;DHT22;1116;51.502;7.414;2023-05-15T00:11:03;14.00;28.50
2543;DHT22;1116;51.502;7.414;2023-05-15T00:13:34;14.00;28.30
2543;DHT22;1116;51.502;7.414;2023-05-15T00:16:05;13.90;29.30
2543;DHT22;1116;51.502;7.414;2023-05-15T00:18:37;13.90;29.40
2543;DHT22;1116;51.502;7.414;2023-05-15T00:21:08;13.80;29.00
2543;DHT22;1116;51.502;7.414;2023-05-15T00:23:39;13.90;29.90
2543;DHT22;1116;51.502;7.414;2023-05-15T00:26:12;13.80;29.20
2543;DHT22;1116;51.502;7.414;2023-05-15T00:28:43;13.80;30.00
2543;DHT22;1116;51.502;7.414;2023-05-15T00:31:14;13.70;30.00
2543;DHT22;1116;51.502;7.414;2023-05-15T00:33:45;13.70;29.60
2543;DHT22;1116;51.502;7.414;2023-05-15T00:36:17;13.70;30.00
2543;DHT22;1116;51.502;7.414;2023-05-15T00:38:48;13.60;29.70
2543;DHT22;1116;51.502;7.414;2023-05-15T00:41:23;13.60;30.10
2543;DHT22;1116;51.502;7.414;2023-05-15T00:43:59;13.50;30.30
2543;DHT22;1116;51.502;7.414;2023-05-15T00:46:32;13.50;30.50
2543;DHT22;1116;51.502;7.414;2023-05-15T00:49:05;13.60;31.00
2543;DHT22;1116;51.502;7.414;2023-05-15T00:51:41;13.60;30.30
2543;DHT22;1116;51.502;7.414;2023-05-15T00:54:12;13.60;29.80
2543;DHT22;1116;51.502;7.414;2023-05-15T00:56:46;13.60;30.00
2543;DHT22;1116;51.502;7.414;2023-05-15T00:59:19;13.50;30.60
2543;DHT22;1116;51.502;7.414;2023-05-15T01:01:51;13.50;31.00
2543;DHT22;1116;51.502;7.414;2023-05-15T01:04:22;13.50;32.20
2543;DHT22;1116;51.502;7.414;2023-05-15T01:06:53;13.50;32.30
2543;DHT22;1116;51.502;7.414;2023-05-15T01:09:25;13.50;34.20
2543;DHT22;1116;51.502;7.414;2023-05-15T01:12:03;13.40;32.90
2543;DHT22;1116;51.502;7.414;2023-05-15T01:14:34;13.50;32.90
2543;DHT22;1116;51.502;7.414;2023-05-15T01:17:05;13.40;32.40
2543;DHT22;1116;51.502;7.414;2023-05-15T01:19:37;13.30;33.60
2543;DHT22;1116;51.502;7.414;2023-05-15T01:22:29;13.20;33.80
2543;DHT22;1116;51.502;7.414;2023-05-15T01:28:08;13.20;34.60
2543;DHT22;1116;51.502;7.414;2023-05-15T01:30:42;13.20;34.60
2543;DHT22;1116;51.502;7.414;2023-05-15T01:33:18;13.10;34.90
2543;DHT22;1116;51.502;7.414;2023-05-15T01:35:56;13.10;34.50
2543;DHT22;1116;51.502;7.414;2023-05-15T01:38:34;13.10;34.50
2543;DHT22;1116;51.502;7.414;2023-05-15T01:41:12;13.00;36.70
2543;DHT22;1116;51.502;7.414;2023-05-15T01:43:55;13.00;37.30
2543;DHT22;1116;51.502;7.414;2023-05-15T01:46:28;12.90;37.70
2543;DHT22;1116;51.502;7.414;2023-05-15T01:49:01;12.90;39.40
2543;DHT22;1116;51.502;7.414;2023-05-15T01:51:32;13.00;40.10
2543;DHT22;1116;51.502;7.414;2023-05-15T01:54:05;13.00;39.40
2543;DHT22;1116;51.502;7.414;2023-05-15T01:56:37;13.00;39.00
2543;DHT22;1116;51.502;7.414;2023-05-15T01:59:12;13.00;39.70
2543;DHT22;1116;51.502;7.414;2023-05-15T02:01:44;12.90;40.00
2543;DHT22;1116;51.502;7.414;2023-05-15T02:04:17;12.90;39.70
2543;DHT22;1116;51.502;7.414;2023-05-15T02:06:48;12.90;39.40
2543;DHT22;1116;51.502;7.414;2023-05-15T02:09:20;12.80;39.10
2543;DHT22;1116;51.502;7.414;2023-05-15T02:11:52;12.80;41.10
2543;DHT22;1116;51.502;7.414;2023-05-15T02:14:27;12.80;40.80
2543;DHT22;1116;51.502;7.414;2023-05-15T02:17:01;12.80;41.60
2543;DHT22;1116;51.502;7.414;2023-05-15T02:19:32;12.70;40.00
2543;DHT22;1116;51.502;7.414;2023-05-15T02:22:03;12.60;39.90
2543;DHT22;1116;51.502;7.414;2023-05-15T02:24:34;12.60;42.30
2543;DHT22;1116;51.502;7.414;2023-05-15T02:27:12;12.60;41.60
2543;DHT22;1116;51.502;7.414;2023-05-15T02:29:58;12.50;42.40
2543;DHT22;1116;51.502;7.414;2023-05-15T02:32:45;12.50;41.30
2543;DHT22;1116;51.502;7.414;2023-05-15T02:35:25;12.50;42.10
2543;DHT22;1116;51.502;7.414;2023-05-15T02:38:04;12.50;44.40
2543;DHT22;1116;51.502;7.414;2023-05-15T02:40:38;12.40;43.00
2543;DHT22;1116;51.502;7.414;2023-05-15T02:43:10;12.40;44.30
2543;DHT22;1116;51.502;7.414;2023-05-15T02:45:45;12.40;43.40
2543;DHT22;1116;51.502;7.414;2023-05-15T02:48:16;12.40;45.00
2543;DHT22;1116;51.502;7.414;2023-05-15T02:50:48;12.40;44.40
2543;DHT22;1116;51.502;7.414;2023-05-15T02:53:19;12.40;44.30
2543;DHT22;1116;51.502;7.414;2023-05-15T02:55:50;12.30;45.80
2543;DHT22;1116;51.502;7.414;2023-05-15T02:58:24;12.30;47.80
2543;DHT22;1116;51.502;7.414;2023-05-15T03:00:58;12.30;48.60
2543;DHT22;1116;51.502;7.414;2023-05-15T03:03:29;12.30;47.80
2543;DHT22;1116;51.502;7.414;2023-05-15T03:06:00;12.30;54.30
2543;DHT22;1116;51.502;7.414;2023-05-15T03:08:33;12.20;52.00
2543;DHT22;1116;51.502;7.414;2023-05-15T03:11:04;12.30;54.30
2543;DHT22;1116;51.502;7.414;2023-05-15T03:13:35;12.20;51.50
2543;DHT22;1116;51.502;7.414;2023-05-15T03:16:09;12.20;54.20
2543;DHT22;1116;51.502;7.414;2023-05-15T03:18:40;12.20;54.10
2543;DHT22;1116;51.502;7.414;2023-05-15T03:21:11;12.10;54.70
2543;DHT22;1116;51.502;7.414;2023-05-15T03:23:42;12.50;64.60
2543;DHT22;1116;51.502;7.414;2023-05-15T03:26:13;12.20;99.90
2543;DHT22;1116;51.502;7.414;2023-05-15T03:28:46;12.20;99.90
2543;DHT22;1116;51.502;7.414;2023-05-15T03:31:20;12.20;97.20
2543;DHT22;1116;51.502;7.414;2023-05-15T03:33:51;12.30;99.90
2543;DHT22;1116;51.502;7.414;2023-05-15T03:36:22;12.40;99.90
2543;DHT22;1116;51.502;7.414;2023-05-15T03:38:53;12.60;99.90
2543;DHT22;1116;51.502;7.414;2023-05-15T03:41:24;12.70;99.90
2543;DHT22;1116;51.502;7.414;2023-05-15T03:43:58;12.90;99.90
2543;DHT22;1116;51.502;7.414;2023-05-15T03:46:31;13.00;99.90
2543;DHT22;1116;51.502;7.414;2023-05-15T03:49:02;13.10;99.90
2543;DHT22;1116;51.502;7.414;2023-05-15T03:51:33;13.10;99.90
2543;DHT22;1116;51.502;7.414;2023-05-15T03:54:05;13.20;99.90
2543;DHT22;1116;51.502;7.414;2023-05-15T03:56:36;13.20;99.90
2543;DHT22;1116;51.502;7.414;2023-05-15T03:59:07;13.30;99.90
2543;DHT22;1116;51.502;7.414;2023-05-15T04:01:41;13.40;99.90
2543;DHT22;1116;51.502;7.414;2023-05-15T04:04:31;13.40;99.90
2543;DHT22;1116;51.502;7.414;2023-05-15T04:07:02;13.40;99.90
2543;DHT22;1116;51.502;7.414;2023-05-15T04:09:34;13.40;99.90
2543;DHT22;1116;51.502;7.414;2023-05-15T04:12:06;13.40;99.90
2543;DHT22;1116;51.502;7.414;2023-05-15T04:14:37;13.50;99.90
2543;DHT22;1116;51.502;7.414;2023-05-15T04:17:10;13.50;99.90
2543;DHT22;1116;51.502;7.414;2023-05-15T04:19:41;13.50;99.90
2543;DHT22;1116;51.502;7.414;2023-05-15T04:22:12;13.60;99.90
2543;DHT22;1116;51.502;7.414;2023-05-15T04:24:43;13.70;99.90
2543;DHT22;1116;51.502;7.414;2023-05-15T04:27:14;13.70;99.90
2543;DHT22;1116;51.502;7.414;2023-05-15T04:29:45;13.80;99.90
2543;DHT22;1116;51.502;7.414;2023-05-15T04:32:19;13.80;99.90
2543;DHT22;1116;51.502;7.414;2023-05-15T04:34:50;13.90;99.90
2543;DHT22;1116;51.502;7.414;2023-05-15T04:37:21;14.00;99.90
2543;DHT22;1116;51.502;7.414;2023-05-15T04:39:52;14.00;99.90
2543;DHT22;1116;51.502;7.414;2023-05-15T04:42:23;14.10;99.90
2543;DHT22;1116;51.502;7.414;2023-05-15T04:44:54;14.10;99.90
2543;DHT22;1116;51.502;7.414;2023-05-15T04:47:27;14.20;99.90
2543;DHT22;1116;51.502;7.414;2023-05-15T04:49:58;14.30;99.90
2543;DHT22;1116;51.502;7.414;2023-05-15T04:52:29;14.30;99.90
2543;DHT22;1116;51.502;7.414;2023-05-15T04:55:00;14.30;99.90
2543;DHT22;1116;51.502;7.414;2023-05-15T04:57:31;14.20;99.90
2543;DHT22;1116;51.502;7.414;2023-05-15T05:00:03;14.30;99.90
2543;DHT22;1116;51.502;7.414;2023-05-15T05:02:40;14.20;99.90
2543;DHT22;1116;51.502;7.414;2023-05-15T05:05:11;14.20;99.90
2543;DHT22;1116;51.502;7.414;2023-05-15T05:07:46;14.30;99.90
2543;DHT22;1116;51.502;7.414;2023-05-15T05:10:19;14.40;99.90
2543;DHT22;1116;51.502;7.414;2023-05-15T05:12:50;14.40;99.90
2543;DHT22;1116;51.502;7.414;2023-05-15T05:15:20;14.50;99.90
2543;DHT22;1116;51.502;7.414;2023-05-15T05:17:54;14.50;99.90
2543;DHT22;1116;51.502;7.414;2023-05-15T05:20:28;14.50;99.90
2543;DHT22;1116;51.502;7.414;2023-05-15T05:22:59;14.50;99.90
2543;DHT22;1116;51.502;7.414;2023-05-15T05:25:31;14.50;99.90
2543;DHT22;1116;51.502;7.414;2023-05-15T05:28:02;14.50;99.90
2543;DHT22;1116;51.502;7.414;2023-05-15T05:30:33;14.50;99.90
2543;DHT22;1116;51.502;7.414;2023-05-15T05:33:06;14.60;99.90
2543;DHT22;1116;51.502;7.414;2023-05-15T05:35:45;14.60;98.00
2543;DHT22;1116;51.502;7.414;2023-05-15T05:38:16;14.60;98.00
2543;DHT22;1116;51.502;7.414;2023-05-15T05:40:47;14.60;97.10
2543;DHT22;1116;51.502;7.414;2023-05-15T05:43:18;14.70;96.20
2543;DHT22;1116;51.502;7.414;2023-05-15T05:45:49;14.70;94.70
2543;DHT22;1116;51.502;7.414;2023-05-15T05:48:23;14.60;93.50
2543;DHT22;1116;51.502;7.414;2023-05-15T05:50:54;14.60;93.90
2543;DHT22;1116;51.502;7.414;2023-05-15T05:53:25;14.60;93.70
2543;DHT22;1116;51.502;7.414;2023-05-15T05:55:56;14.60;92.80
2543;DHT22;1116;51.502;7.414;2023-05-15T05:58:27;14.70;92.80
2543;DHT22;1116;51.502;7.414;2023-05-15T06:00:58;14.80;92.90
2543;DHT22;1116;51.502;7.414;2023-05-15T06:03:35;14.90;87.00
2543;DHT22;1116;51.502;7.414;2023-05-15T06:06:06;14.90;82.80
2543;DHT22;1116;51.502;7.414;2023-05-15T06:08:37;14.80;79.10
2543;DHT22;1116;51.502;7.414;2023-05-15T06:11:07;14.90;77.60
2543;DHT22;1116;51.502;7.414;2023-05-15T06:13:38;14.80;74.50
2543;DHT22;1116;51.502;7.414;2023-05-15T06:16:10;14.80;71.20
2543;DHT22;1116;51.502;7.414;2023-05-15T06:18:43;14.70;69.70
2543;DHT22;1116;51.502;7.414;2023-05-15T06:21:14;14.60;69.90
2543;DHT22;1116;51.502;7.414;2023-05-15T06:23:45;14.50;71.10
2543;DHT22;1116;51.502;7.414;2023-05-15T06:26:16;14.50;68.30
2543;DHT22;1116;51.502;7.414;2023-05-15T06:28:48;14.50;68.00
2543;DHT22;1116;51.502;7.414;2023-05-15T06:31:19;14.50;68.00
2543;DHT22;1116;51.502;7.414;2023-05-15T06:33:53;14.60;65.00
2543;DHT22;1116;51.502;7.414;2023-05-15T06:36:26;14.70;64.40
2543;DHT22;1116;51.502;7.414;2023-05-15T06:39:00;14.70;62.10
2543;DHT22;1116;51.502;7.414;2023-05-15T06:41:31;14.70;61.60
2543;DHT22;1116;51.502;7.414;2023-05-15T06:44:03;14.70;62.60
2543;DHT22;1116;51.502;7.414;2023-05-15T06:46:35;14.70;60.20
2543;DHT22;1116;51.502;7.414;2023-05-15T06:49:09;14.70;61.00
2543;DHT22;1116;51.502;7.414;2023-05-15T06:51:40;14.80;59.90
2543;DHT22;1116;51.502;7.414;2023-05-15T06:54:11;14.80;59.70
2543;DHT22;1116;51.502;7.414;2023-05-15T06:56:42;14.90;57.60
2543;DHT22;1116;51.502;7.414;2023-05-15T06:59:13;15.00;56.80
2543;DHT22;1116;51.502;7.414;2023-05-15T07:01:44;15.00;54.90
2543;DHT22;1116;51.502;7.414;2023-05-15T07:04:17;15.00;53.40
2543;DHT22;1116;51.502;7.414;2023-05-15T07:06:48;15.30;54.00
2543;DHT22;1116;51.502;7.414;2023-05-15T07:09:19;15.50;49.30
2543;DHT22;1116;51.502;7.414;2023-05-15T07:11:50;15.80;46.80
2543;DHT22;1116;51.502;7.414;2023-05-15T07:14:21;16.50;44.40
2543;DHT22;1116;51.502;7.414;2023-05-15T07:16:52;16.90;35.20
2543;DHT22;1116;51.502;7.414;2023-05-15T07:19:26;17.00;30.90
2543;DHT22;1116;51.502;7.414;2023-05-15T07:21:57;16.90;29.00
2543;DHT22;1116;51.502;7.414;2023-05-15T07:24:30;16.80;30.10
2543;DHT22;1116;51.502;7.414;2023-05-15T07:27:01;16.80;30.00
2543;DHT22;1116;51.502;7.414;2023-05-15T07:29:32;16.60;31.20
2543;DHT22;1116;51.502;7.414;2023-05-15T07:32:03;16.40;30.20
2543;DHT22;1116;51.502;7.414;2023-05-15T07:34:37;16.20;30.80
2543;DHT22;1116;51.502;7.414;2023-05-15T07:37:09;16.40;31.20
2543;DHT22;1116;51.502;7.414;2023-05-15T07:39:43;16.30;29.80
2543;DHT22;1116;51.502;7.414;2023-05-15T07:42:14;16.20;30.80
2543;DHT22;1116;51.502;7.414;2023-05-15T07:44:45;16.20;30.60
2543;DHT22;1116;51.502;7.414;2023-05-15T07:47:16;16.10;30.00
2543;DHT22;1116;51.502;7.414;2023-05-15T07:49:50;16.10;32.60
2543;DHT22;1116;51.502;7.414;2023-05-15T07:52:21;16.10;31.30
2543;DHT22;1116;51.502;7.414;2023-05-15T07:54:52;16.10;31.10
2543;DHT22;1116;51.502;7.414;2023-05-15T07:57:22;15.90;31.10
2543;DHT22;1116;51.502;7.414;2023-05-15T07:59:53;15.80;31.60
2543;DHT22;1116;51.502;7.414;2023-05-15T08:02:24;15.80;31.10
2543;DHT22;1116;51.502;7.414;2023-05-15T08:05:01;15.70;31.90
2543;DHT22;1116;51.502;7.414;2023-05-15T08:07:32;15.60;32.20
2543;DHT22;1116;51.502;7.414;2023-05-15T08:10:03;15.60;32.50
2543;DHT22;1116;51.502;7.414;2023-05-15T08:12:34;15.60;31.20
2543;DHT22;1116;51.502;7.414;2023-05-15T08:15:07;15.70;31.10
2543;DHT22;1116;51.502;7.414;2023-05-15T08:17:38;15.80;31.20
2543;DHT22;1116;51.502;7.414;2023-05-15T08:20:12;15.80;30.60
2543;DHT22;1116;51.502;7.414;2023-05-15T08:22:43;15.90;29.70
2543;DHT22;1116;51.502;7.414;2023-05-15T08:25:14;16.00;28.00
2543;DHT22;1116;51.502;7.414;2023-05-15T08:27:45;16.00;29.20
2543;DHT22;1116;51.502;7.414;2023-05-15T08:30:17;16.20;28.90
2543;DHT22;1116;51.502;7.414;2023-05-15T08:32:48;16.40;28.20
2543;DHT22;1116;51.502;7.414;2023-05-15T08:35:22;16.50;27.60
2543;DHT22;1116;51.502;7.414;2023-05-15T08:37:53;16.80;27.00
2543;DHT22;1116;51.502;7.414;2023-05-15T08:40:24;17.00;26.40
2543;DHT22;1116;51.502;7.414;2023-05-15T08:43:02;17.00;24.50
2543;DHT22;1116;51.502;7.414;2023-05-15T08:45:35;16.90;23.30
2543;DHT22;1116;51.502;7.414;2023-05-15T08:48:10;16.90;23.60
2543;DHT22;1116;51.502;7.414;2023-05-15T08:50:48;16.90;24.50
2543;DHT22;1116;51.502;7.414;2023-05-15T08:53:19;17.10;22.70
2543;DHT22;1116;51.502;7.414;2023-05-15T08:55:51;17.10;21.70
2543;DHT22;1116;51.502;7.414;2023-05-15T08:58:22;17.30;24.00
2543;DHT22;1116;51.502;7.414;2023-05-15T09:00:55;17.50;21.50
2543;DHT22;1116;51.502;7.414;2023-05-15T09:03:28;17.60;20.70
2543;DHT22;1116;51.502;7.414;2023-05-15T09:06:03;17.70;21.90
2543;DHT22;1116;51.502;7.414;2023-05-15T09:08:34;17.90;18.10
2543;DHT22;1116;51.502;7.414;2023-05-15T09:11:06;18.00;16.40
2543;DHT22;1116;51.502;7.414;2023-05-15T09:13:38;18.20;17.40
2543;DHT22;1116;51.502;7.414;2023-05-15T09:16:08;18.30;16.60
2543;DHT22;1116;51.502;7.414;2023-05-15T09:18:40;18.30;17.20
2543;DHT22;1116;51.502;7.414;2023-05-15T09:21:24;18.30;14.90
2543;DHT22;1116;51.502;7.414;2023-05-15T09:24:15;18.30;18.10
2543;DHT22;1116;51.502;7.414;2023-05-15T09:27:00;18.50;15.80
2543;DHT22;1116;51.502;7.414;2023-05-15T09:29:32;18.70;14.60
2543;DHT22;1116;51.502;7.414;2023-05-15T09:32:06;19.00;14.90
2543;DHT22;1116;51.502;7.414;2023-05-15T09:34:38;19.10;15.10
2543;DHT22;1116;51.502;7.414;2023-05-15T09:37:27;19.20;13.30
2543;DHT22;1116;51.502;7.414;2023-05-15T09:40:06;19.20;11.90
2543;DHT22;1116;51.502;7.414;2023-05-15T09:42:38;19.40;12.80
2543;DHT22;1116;51.502;7.414;2023-05-15T09:45:16;19.40;11.20
2543;DHT22;1116;51.502;7.414;2023-05-15T09:47:47;19.50;9.30
2543;DHT22;1116;51.502;7.414;2023-05-15T09:50:23;19.50;7.60
2543;DHT22;1116;51.502;7.414;2023-05-15T09:53:01;19.40;7.30
2543;DHT22;1116;51.502;7.414;2023-05-15T09:55:33;19.40;10.60
2543;DHT22;1116;51.502;7.414;2023-05-15T09:58:08;19.30;8.80
2543;DHT22;1116;51.502;7.414;2023-05-15T10:00:41;19.30;6.90
2543;DHT22;1116;51.502;7.414;2023-05-15T10:03:16;18.90;7.10
2543;DHT22;1116;51.502;7.414;2023-05-15T10:05:48;19.10;7.60
2543;DHT22;1116;51.502;7.414;2023-05-15T10:08:27;19.00;7.30
2543;DHT22;1116;51.502;7.414;2023-05-15T10:11:02;19.10;8.30
2543;DHT22;1116;51.502;7.414;2023-05-15T10:13:35;19.30;5.40
2543;DHT22;1116;51.502;7.414;2023-05-15T10:16:06;19.40;8.90
2543;DHT22;1116;51.502;7.414;2023-05-15T10:18:38;19.50;9.10
2543;DHT22;1116;51.502;7.414;2023-05-15T10:21:11;19.80;6.10
2543;DHT22;1116;51.502;7.414;2023-05-15T10:23:44;19.60;6.00
2543;DHT22;1116;51.502;7.414;2023-05-15T10:26:21;19.60;5.50
2543;DHT22;1116;51.502;7.414;2023-05-15T10:28:53;19.70;6.60
2543;DHT22;1116;51.502;7.414;2023-05-15T10:31:27;19.80;6.50
2543;DHT22;1116;51.502;7.414;2023-05-15T10:33:59;20.00;6.90
2543;DHT22;1116;51.502;7.414;2023-05-15T10:36:31;20.10;4.60
2543;DHT22;1116;51.502;7.414;2023-05-15T10:39:06;20.20;5.20
2543;DHT22;1116;51.502;7.414;2023-05-15T10:41:38;20.10;4.80
2543;DHT22;1116;51.502;7.414;2023-05-15T10:44:10;20.10;4.30
2543;DHT22;1116;51.502;7.414;2023-05-15T10:46:46;20.10;4.90
2543;DHT22;1116;51.502;7.414;2023-05-15T10:49:17;20.10;3.50
2543;DHT22;1116;51.502;7.414;2023-05-15T10:51:53;20.10;5.50
2543;DHT22;1116;51.502;7.414;2023-05-15T10:54:27;20.40;3.30
2543;DHT22;1116;51.502;7.414;2023-05-15T10:57:01;20.40;3.30
2543;DHT22;1116;51.502;7.414;2023-05-15T10:59:33;20.60;3.50
2543;DHT22;1116;51.502;7.414;2023-05-15T11:02:19;20.80;2.00
2543;DHT22;1116;51.502;7.414;2023-05-15T11:04:54;20.90;2.40
2543;DHT22;1116;51.502;7.414;2023-05-15T11:07:28;20.80;3.40
2543;DHT22;1116;51.502;7.414;2023-05-15T11:13:08;21.10;1.00
2543;DHT22;1116;51.502;7.414;2023-05-15T11:15:41;21.10;1.00
2543;DHT22;1116;51.502;7.414;2023-05-15T11:18:12;21.20;1.00
2543;DHT22;1116;51.502;7.414;2023-05-15T11:21:07;21.30;1.00
2543;DHT22;1116;51.502;7.414;2023-05-15T11:23:39;21.30;1.00
2543;DHT22;1116;51.502;7.414;2023-05-15T11:26:14;21.40;1.00
2543;DHT22;1116;51.502;7.414;2023-05-15T11:28:47;21.50;1.00
2543;DHT22;1116;51.502;7.414;2023-05-15T11:31:28;21.40;1.00
2543;DHT22;1116;51.502;7.414;2023-05-15T11:34:04;21.50;1.00
2543;DHT22;1116;51.502;7.414;2023-05-15T11:36:36;21.30;1.00
2543;DHT22;1116;51.502;7.414;2023-05-15T11:39:09;21.60;1.00
2543;DHT22;1116;51.502;7.414;2023-05-15T11:41:43;21.80;1.00
2543;DHT22;1116;51.502;7.414;2023-05-15T11:44:19;21.50;1.00
2543;DHT22;1116;51.502;7.414;2023-05-15T11:46:53;21.30;1.00
2543;DHT22;1116;51.502;7.414;2023-05-15T11:49:25;21.20;1.00
2543;DHT22;1116;51.502;7.414;2023-05-15T11:51:56;21.30;1.00
2543;DHT22;1116;51.502;7.414;2023-05-15T11:54:28;21.40;1.00
2543;DHT22;1116;51.502;7.414;2023-05-15T11:57:02;21.60;1.00
2543;DHT22;1116;51.502;7.414;2023-05-15T11:59:36;21.70;1.00
2543;DHT22;1116;51.502;7.414;2023-05-15T12:02:08;21.60;1.00
2543;DHT22;1116;51.502;7.414;2023-05-15T12:04:39;21.60;1.00
2543;DHT22;1116;51.502;7.414;2023-05-15T12:07:10;21.60;1.00
2543;DHT22;1116;51.502;7.414;2023-05-15T12:09:41;21.70;1.00
2543;DHT22;1116;51.502;7.414;2023-05-15T12:12:15;21.90;1.00
2543;DHT22;1116;51.502;7.414;2023-05-15T12:14:45;21.90;1.00
2543;DHT22;1116;51.502;7.414;2023-05-15T12:17:17;21.90;1.00
2543;DHT22;1116;51.502;7.414;2023-05-15T12:19:49;21.80;1.00
2543;DHT22;1116;51.502;7.414;2023-05-15T12:22:21;21.80;1.00
2543;DHT22;1116;51.502;7.414;2023-05-15T12:24:57;21.90;1.00
2543;DHT22;1116;51.502;7.414;2023-05-15T12:27:31;22.00;1.00
2543;DHT22;1116;51.502;7.414;2023-05-15T12:30:03;22.20;1.00
2543;DHT22;1116;51.502;7.414;2023-05-15T12:32:35;22.30;1.00
2543;DHT22;1116;51.502;7.414;2023-05-15T12:35:09;22.30;1.00
2543;DHT22;1116;51.502;7.414;2023-05-15T12:37:40;22.40;1.00
2543;DHT22;1116;51.502;7.414;2023-05-15T12:40:12;22.10;1.00
2543;DHT22;1116;51.502;7.414;2023-05-15T12:42:51;22.00;1.00
2543;DHT22;1116;51.502;7.414;2023-05-15T12:45:24;22.10;1.00
2543;DHT22;1116;51.502;7.414;2023-05-15T12:47:57;22.20;1.00
2543;DHT22;1116;51.502;7.414;2023-05-15T12:50:31;22.20;1.00
2543;DHT22;1116;51.502;7.414;2023-05-15T12:53:04;22.30;1.00
2543;DHT22;1116;51.502;7.414;2023-05-15T12:55:36;22.20;1.00
2543;DHT22;1116;51.502;7.414;2023-05-15T12:58:10;22.00;1.00
2543;DHT22;1116;51.502;7.414;2023-05-15T13:00:42;21.80;1.00
2543;DHT22;1116;51.502;7.414;2023-05-15T13:03:19;22.00;1.00
2543;DHT22;1116;51.502;7.414;2023-05-15T13:05:51;22.30;1.00
2543;DHT22;1116;51.502;7.414;2023-05-15T13:08:22;22.20;1.00
2543;DHT22;1116;51.502;7.414;2023-05-15T13:10:56;22.20;1.00
2543;DHT22;1116;51.502;7.414;2023-05-15T13:13:44;22.40;1.00
2543;DHT22;1116;51.502;7.414;2023-05-15T13:16:20;22.10;1.00
2543;DHT22;1116;51.502;7.414;2023-05-15T13:18:51;22.00;1.00
2543;DHT22;1116;51.502;7.414;2023-05-15T13:21:23;21.80;1.00
2543;DHT22;1116;51.502;7.414;2023-05-15T13:23:56;21.70;1.00
2543;DHT22;1116;51.502;7.414;2023-05-15T13:26:27;21.80;1.00
2543;DHT22;1116;51.502;7.414;2023-05-15T13:29:01;21.70;1.00
2543;DHT22;1116;51.502;7.414;2023-05-15T13:31:32;21.50;1.00
2543;DHT22;1116;51.502;7.414;2023-05-15T13:34:05;21.30;1.00
2543;DHT22;1116;51.502;7.414;2023-05-15T13:36:36;21.00;1.00
2543;DHT22;1116;51.502;7.414;2023-05-15T13:39:07;21.10;1.00
2543;DHT22;1116;51.502;7.414;2023-05-15T13:41:38;21.40;1.00
2543;DHT22;1116;51.502;7.414;2023-05-15T13:44:12;21.40;1.00
2543;DHT22;1116;51.502;7.414;2023-05-15T13:46:43;21.30;1.00
2543;DHT22;1116;51.502;7.414;2023-05-15T13:49:14;21.30;1.00
2543;DHT22;1116;51.502;7.414;2023-05-15T13:51:45;21.40;1.00
2543;DHT22;1116;51.502;7.414;2023-05-15T13:54:16;21.30;1.00
2543;DHT22;1116;51.502;7.414;2023-05-15T13:56:48;21.40;1.00
2543;DHT22;1116;51.502;7.414;2023-05-15T13:59:21;21.60;1.00
2543;DHT22;1116;51.502;7.414;2023-05-15T14:01:52;21.60;1.00
2543;DHT22;1116;51.502;7.414;2023-05-15T14:04:23;21.70;1.00
2543;DHT22;1116;51.502;7.414;2023-05-15T14:06:55;21.70;1.00
2543;DHT22;1116;51.502;7.414;2023-05-15T14:09:29;21.80;1.00
2543;DHT22;1116;51.502;7.414;2023-05-15T14:12:00;22.00;1.00
2543;DHT22;1116;51.502;7.414;2023-05-15T14:14:34;21.80;1.00
2543;DHT22;1116;51.502;7.414;2023-05-15T14:17:04;21.70;1.00
2543;DHT22;1116;51.502;7.414;2023-05-15T14:19:36;21.50;1.00
2543;DHT22;1116;51.502;7.414;2023-05-15T14:22:07;21.20;1.00
2543;DHT22;1116;51.502;7.414;2023-05-15T14:24:38;21.60;1.00
2543;DHT22;1116;51.502;7.414;2023-05-15T14:27:09;21.30;1.00
2543;DHT22;1116;51.502;7.414;2023-05-15T14:29:42;21.40;1.00
2543;DHT22;1116;51.502;7.414;2023-05-15T14:32:15;21.40;1.00
2543;DHT22;1116;51.502;7.414;2023-05-15T14:34:47;21.50;1.00
2543;DHT22;1116;51.502;7.414;2023-05-15T14:37:18;21.40;1.00
2543;DHT22;1116;51.502;7.414;2023-05-15T14:39:48;21.60;1.00
2543;DHT22;1116;51.502;7.414;2023-05-15T14:42:20;21.30;1.00
2543;DHT22;1116;51.502;7.414;2023-05-15T14:44:53;21.20;1.00
2543;DHT22;1116;51.502;7.414;2023-05-15T14:47:24;21.10;1.00
2543;DHT22;1116;51.502;7.414;2023-05-15T14:49:57;21.00;1.00
2543;DHT22;1116;51.502;7.414;2023-05-15T14:52:28;21.10;1.00
2543;DHT22;1116;51.502;7.414;2023-05-15T14:54:59;21.20;1.00
2543;DHT22;1116;51.502;7.414;2023-05-15T14:57:33;21.30;1.00
2543;DHT22;1116;51.502;7.414;2023-05-15T15:00:17;21.30;1.00
2543;DHT22;1116;51.502;7.414;2023-05-15T15:02:48;21.10;1.00
2543;DHT22;1116;51.502;7.414;2023-05-15T15:05:19;20.90;1.00
2543;DHT22;1116;51.502;7.414;2023-05-15T15:07:58;20.60;1.00
2543;DHT22;1116;51.502;7.414;2023-05-15T15:10:31;20.20;1.00
2543;DHT22;1116;51.502;7.414;2023-05-15T15:13:03;20.10;1.00
2543;DHT22;1116;51.502;7.414;2023-05-15T15:15:37;19.90;1.00
2543;DHT22;1116;51.502;7.414;2023-05-15T15:18:08;19.90;1.00
2543;DHT22;1116;51.502;7.414;2023-05-15T15:20:40;20.00;1.00
2543;DHT22;1116;51.502;7.414;2023-05-15T15:23:11;20.00;1.00
2543;DHT22;1116;51.502;7.414;2023-05-15T15:25:42;20.10;1.00
2543;DHT22;1116;51.502;7.414;2023-05-15T15:28:13;20.10;1.00
2543;DHT22;1116;51.502;7.414;2023-05-15T15:30:47;20.00;1.00
2543;DHT22;1116;51.502;7.414;2023-05-15T15:33:17;19.90;1.00
2543;DHT22;1116;51.502;7.414;2023-05-15T15:35:48;19.90;1.00
2543;DHT22;1116;51.502;7.414;2023-05-15T15:38:19;20.10;1.00
2543;DHT22;1116;51.502;7.414;2023-05-15T15:40:50;20.10;1.00
2543;DHT22;1116;51.502;7.414;2023-05-15T15:43:21;20.10;1.00
2543;DHT22;1116;51.502;7.414;2023-05-15T15:45:55;20.10;1.00
2543;DHT22;1116;51.502;7.414;2023-05-15T15:48:26;20.10;1.00
2543;DHT22;1116;51.502;7.414;2023-05-15T15:50:57;20.00;1.00
2543;DHT22;1116;51.502;7.414;2023-05-15T15:53:28;19.90;1.00
2543;DHT22;1116;51.502;7.414;2023-05-15T15:56:01;19.90;1.00
2543;DHT22;1116;51.502;7.414;2023-05-15T15:58:32;19.80;1.00
2543;DHT22;1116;51.502;7.414;2023-05-15T16:01:05;19.70;1.00
2543;DHT22;1116;51.502;7.414;2023-05-15T16:03:36;19.70;1.00
2543;DHT22;1116;51.502;7.414;2023-05-15T16:06:07;19.70;1.00
2543;DHT22;1116;51.502;7.414;2023-05-15T16:08:39;19.70;1.00
2543;DHT22;1116;51.502;7.414;2023-05-15T16:11:10;19.70;1.00
2543;DHT22;1116;51.502;7.414;2023-05-15T16:13:40;19.70;1.00
2543;DHT22;1116;51.502;7.414;2023-05-15T16:16:14;19.80;1.00
2543;DHT22;1116;51.502;7.414;2023-05-15T16:18:46;19.80;1.00
2543;DHT22;1116;51.502;7.414;2023-05-15T16:21:17;19.70;1.00
2543;DHT22;1116;51.502;7.414;2023-05-15T16:23:48;19.90;1.00
2543;DHT22;1116;51.502;7.414;2023-05-15T16:26:19;19.60;1.00
2543;DHT22;1116;51.502;7.414;2023-05-15T16:28:50;19.50;1.00
2543;DHT22;1116;51.502;7.414;2023-05-15T16:31:24;19.50;1.00
2543;DHT22;1116;51.502;7.414;2023-05-15T16:33:55;19.50;1.00
2543;DHT22;1116;51.502;7.414;2023-05-15T16:36:30;19.50;1.00
2543;DHT22;1116;51.502;7.414;2023-05-15T16:39:01;19.50;1.00
2543;DHT22;1116;51.502;7.414;2023-05-15T16:41:32;19.50;1.00
2543;DHT22;1116;51.502;7.414;2023-05-15T16:44:03;19.50;1.00
2543;DHT22;1116;51.502;7.414;2023-05-15T16:46:40;19.60;1.00
2543;DHT22;1116;51.502;7.414;2023-05-15T16:49:11;19.50;1.00
2543;DHT22;1116;51.502;7.414;2023-05-15T16:51:42;19.40;1.00